Cates, Indiana
Current Conditions -  °F | °C
As of 8:55 AM on Monday 20 Oct 2014 (Local Time) from KDNV Reporting Station
Broken Clouds Broken Clouds  
Wind Chill: 52°   Ceiling: 12000
Heat Index: 52°   Visibility: 10mi
Dew Point: 47°   Wind: 10mph
Humidity: 85%   Direction: 220°SW
Pressure: 29.86"   Gusts: NA
Location:  39.9707°N, 87.3162°W
Report Text: KDNV 201255Z AUTO 22009KT 10SM BKN120 11/09 A2986 RMK AO2 T01090085
Loading
Personal Weather Stations






























Interactive Weather Map
Tropical Storm Tracking
New forecast layout! Learn more

10-Day Weather Forecast

Advertisements
Track Severe Weather on mobile